createdAt,value
2018-01-06T00:02:16.579Z,99524.14
2018-01-06T00:04:44.103Z,99525.41
2018-01-06T00:07:11.718Z,99523.70
2018-01-06T00:09:39.236Z,99522.16
2018-01-06T00:12:06.763Z,99529.70
2018-01-06T00:14:34.350Z,99536.86
2018-01-06T00:17:01.909Z,99537.39
2018-01-06T00:19:29.475Z,99535.59
2018-01-06T00:21:57.000Z,99538.34
2018-01-06T00:24:24.553Z,99545.00
2018-01-06T00:26:52.166Z,99550.04
2018-01-06T00:29:19.683Z,99547.36
2018-01-06T00:31:47.292Z,99547.11
2018-01-06T00:34:14.913Z,99559.47
2018-01-06T00:36:42.701Z,99558.91
2018-01-06T00:39:10.213Z,99561.13
2018-01-06T00:41:37.746Z,99551.96
2018-01-06T00:44:05.264Z,99559.59
2018-01-06T00:46:32.803Z,99554.55
2018-01-06T00:49:00.410Z,99564.13
2018-01-06T00:51:28.012Z,99562.45
2018-01-06T00:53:55.724Z,99564.41
2018-01-06T00:56:23.296Z,99567.28
2018-01-06T00:58:50.858Z,99569.41
2018-01-06T01:01:18.587Z,99574.59
2018-01-06T01:03:47.386Z,99562.53
2018-01-06T01:06:15.596Z,99564.28
2018-01-06T01:08:43.350Z,99569.30
2018-01-06T01:11:11.089Z,99574.16
2018-01-06T01:13:38.866Z,99576.09
2018-01-06T01:16:06.436Z,99578.92
2018-01-06T01:18:33.946Z,99571.47
2018-01-06T01:21:01.492Z,99579.06
2018-01-06T01:23:29.306Z,99577.63
2018-01-06T01:25:56.918Z,99586.06
2018-01-06T01:28:24.431Z,99581.11
2018-01-06T01:30:51.978Z,99568.00
2018-01-06T01:33:19.521Z,99577.36
2018-01-06T01:35:47.177Z,99591.33
2018-01-06T01:38:14.720Z,99588.67
2018-01-06T01:40:42.408Z,99587.77
2018-01-06T01:43:09.951Z,99589.19
2018-01-06T01:45:37.529Z,99589.72
2018-01-06T01:48:05.051Z,99593.93
2018-01-06T01:50:32.628Z,99602.69
2018-01-06T01:53:00.264Z,99610.67
2018-01-06T01:55:27.924Z,99613.35
2018-01-06T01:57:55.483Z,99618.29
2018-01-06T02:00:23.074Z,99613.60
2018-01-06T02:02:50.619Z,99619.82
2018-01-06T02:05:18.217Z,99631.05
2018-01-06T02:07:45.776Z,99633.58
2018-01-06T02:10:13.338Z,99631.43
2018-01-06T02:12:40.941Z,99629.54
2018-01-06T02:15:08.459Z,99634.80
2018-01-06T02:17:36.017Z,99636.77
2018-01-06T02:20:03.598Z,99638.48
2018-01-06T02:22:31.202Z,99639.94
2018-01-06T02:24:58.726Z,99636.80
2018-01-06T02:27:26.244Z,99640.22
2018-01-06T02:29:53.828Z,99638.39
2018-01-06T02:32:21.372Z,99637.33
2018-01-06T02:34:48.946Z,99643.98
2018-01-06T02:37:16.473Z,99636.41
2018-01-06T02:39:44.094Z,99642.41
2018-01-06T02:42:11.664Z,99643.84
2018-01-06T02:44:39.194Z,99645.39
2018-01-06T02:47:06.817Z,99642.87
2018-01-06T02:49:34.340Z,99649.80
2018-01-06T02:52:01.966Z,99655.11
2018-01-06T02:54:29.516Z,99661.66
2018-01-06T02:56:57.080Z,99677.89
2018-01-06T02:59:24.628Z,99677.00
2018-01-06T03:01:52.214Z,99674.12
2018-01-06T03:04:19.766Z,99675.07
2018-01-06T03:06:47.331Z,99677.67
2018-01-06T03:09:15.046Z,99687.63
2018-01-06T03:11:42.612Z,99694.64
2018-01-06T03:14:10.210Z,99698.05
2018-01-06T03:16:37.859Z,99692.52
2018-01-06T03:19:05.437Z,99687.19
2018-01-06T03:21:33.164Z,99692.50
2018-01-06T03:24:00.716Z,99700.20
2018-01-06T03:26:28.250Z,99707.88
2018-01-06T03:28:55.810Z,99701.34
2018-01-06T03:31:23.362Z,99697.10
2018-01-06T03:33:50.921Z,99700.90
2018-01-06T03:36:18.559Z,99704.75
2018-01-06T03:38:46.108Z,99704.59
2018-01-06T03:41:13.694Z,99705.48
2018-01-06T03:43:41.346Z,99703.58
2018-01-06T03:46:08.938Z,99705.05
2018-01-06T03:48:36.602Z,99701.32
2018-01-06T03:51:04.266Z,99705.33
2018-01-06T03:53:31.829Z,99704.34
2018-01-06T03:56:00.385Z,99707.86
2018-01-06T03:58:27.944Z,99713.75
2018-01-06T04:00:55.486Z,99719.76
2018-01-06T04:03:23.014Z,99724.38
2018-01-06T04:05:50.734Z,99721.30
2018-01-06T04:08:18.288Z,99714.53
2018-01-06T04:10:45.810Z,99716.02
2018-01-06T04:13:13.401Z,99716.29
2018-01-06T04:15:40.920Z,99716.33
2018-01-06T04:18:08.440Z,99718.56
2018-01-06T04:20:36.013Z,99714.34
2018-01-06T04:23:03.552Z,99715.42
2018-01-06T04:25:31.092Z,99711.47
2018-01-06T04:27:58.632Z,99717.75
2018-01-06T04:30:26.200Z,99716.20
2018-01-06T04:32:53.859Z,99715.81
2018-01-06T04:35:21.474Z,99725.91
2018-01-06T04:37:49.047Z,99733.38
2018-01-06T04:40:16.604Z,99731.16
2018-01-06T04:42:44.189Z,99741.39
2018-01-06T04:45:11.754Z,99751.63
2018-01-06T04:47:39.373Z,99763.55
2018-01-06T04:50:06.953Z,99757.50
2018-01-06T04:52:34.480Z,99753.44
2018-01-06T04:55:02.052Z,99754.50
2018-01-06T04:57:29.631Z,99763.30
2018-01-06T04:59:57.189Z,99762.65
2018-01-06T05:02:24.781Z,99759.63
2018-01-06T05:04:52.349Z,99759.63
2018-01-06T05:07:19.905Z,99768.27
2018-01-06T05:09:47.494Z,99771.42
2018-01-06T05:12:15.004Z,99775.22
2018-01-06T05:14:42.580Z,99775.61
2018-01-06T05:17:10.109Z,99785.06
2018-01-06T05:19:37.618Z,99790.30
2018-01-06T05:22:05.201Z,99796.07
2018-01-06T05:24:32.740Z,99803.66
2018-01-06T05:27:00.327Z,99806.03
2018-01-06T05:29:27.915Z,99809.27
2018-01-06T05:31:55.525Z,99810.47
2018-01-06T05:34:23.094Z,99810.05
2018-01-06T05:36:50.858Z,99809.66
2018-01-06T05:39:18.438Z,99810.05
2018-01-06T05:41:46.037Z,99804.41
2018-01-06T05:44:13.653Z,99807.32
2018-01-06T05:46:41.275Z,99811.88
2018-01-06T05:49:08.835Z,99817.91
2018-01-06T05:51:36.356Z,99813.18
2018-01-06T05:54:03.911Z,99828.11
2018-01-06T05:56:31.644Z,99836.07
2018-01-06T05:58:59.175Z,99835.86
2018-01-06T06:01:26.732Z,99834.05
2018-01-06T06:03:54.346Z,99841.48
2018-01-06T06:06:21.871Z,99851.41
2018-01-06T06:08:49.392Z,99849.30
2018-01-06T06:11:16.927Z,99836.73
2018-01-06T06:13:44.499Z,99845.60
2018-01-06T06:16:12.070Z,99845.31
2018-01-06T06:18:39.627Z,99853.69
2018-01-06T06:21:07.192Z,99856.00
2018-01-06T06:23:34.807Z,99863.48
2018-01-06T06:26:02.333Z,99879.63
2018-01-06T06:28:29.989Z,99885.98
2018-01-06T06:30:57.581Z,99896.55
2018-01-06T06:33:25.107Z,99904.62
2018-01-06T06:35:52.718Z,99905.98
2018-01-06T06:38:20.240Z,99907.37
2018-01-06T06:40:47.756Z,99917.16
2018-01-06T06:43:15.352Z,99917.05
2018-01-06T06:45:42.914Z,99922.68
2018-01-06T06:48:10.473Z,99920.74
2018-01-06T06:50:38.027Z,99918.31
2018-01-06T06:53:05.540Z,99910.56
2018-01-06T06:55:33.133Z,99911.45
2018-01-06T06:58:00.655Z,99910.71
2018-01-06T07:00:28.333Z,99911.99
2018-01-06T07:02:56.116Z,99911.47
2018-01-06T07:05:23.688Z,99910.45
2018-01-06T07:07:51.458Z,99905.22
2018-01-06T07:10:19.008Z,99909.22
2018-01-06T07:12:46.537Z,99908.16
2018-01-06T07:15:14.085Z,99903.98
2018-01-06T07:17:41.594Z,99900.48
2018-01-06T07:20:09.168Z,99907.52
2018-01-06T07:22:37.590Z,99920.95
2018-01-06T07:25:05.400Z,99920.46
2018-01-06T07:27:33.067Z,99938.02
2018-01-06T07:30:00.601Z,99933.24
2018-01-06T07:32:28.160Z,99943.00
2018-01-06T07:34:55.999Z,99945.06
2018-01-06T07:37:23.518Z,99950.45
2018-01-06T07:39:51.027Z,99956.22
2018-01-06T07:42:18.601Z,99956.57
2018-01-06T07:44:46.115Z,99959.14
2018-01-06T07:47:13.702Z,99969.98
2018-01-06T07:49:41.210Z,99978.70
2018-01-06T07:52:08.766Z,99987.77
2018-01-06T07:54:36.279Z,99986.20
2018-01-06T07:57:03.791Z,99987.08
2018-01-06T07:59:31.378Z,99994.66
2018-01-06T08:01:58.917Z,99998.49
2018-01-06T08:04:26.469Z,99994.00
2018-01-06T08:06:54.119Z,99999.36
2018-01-06T08:09:21.739Z,100007.81
2018-01-06T08:11:49.280Z,99999.31
2018-01-06T08:14:16.806Z,100006.69
2018-01-06T08:16:44.440Z,100017.31
2018-01-06T08:19:12.104Z,100027.13
2018-01-06T08:21:39.827Z,100028.38
2018-01-06T08:24:07.385Z,100033.06
2018-01-06T08:26:34.899Z,100038.71
2018-01-06T08:29:02.472Z,100039.03
2018-01-06T08:31:30.039Z,100046.75
2018-01-06T08:33:57.854Z,100057.39
2018-01-06T08:36:25.507Z,100068.95
2018-01-06T08:38:53.027Z,100071.52
2018-01-06T08:41:20.588Z,100081.90
2018-01-06T08:43:48.238Z,100078.93
2018-01-06T08:46:15.816Z,100090.30
2018-01-06T08:48:43.416Z,100094.56
2018-01-06T08:51:10.981Z,100095.27
2018-01-06T08:53:38.541Z,100102.89
2018-01-06T08:56:06.209Z,100103.61
2018-01-06T08:58:33.801Z,100102.29
2018-01-06T09:01:01.365Z,100115.55
2018-01-06T09:03:29.052Z,100123.62
2018-01-06T09:05:56.612Z,100128.81
2018-01-06T09:08:24.344Z,100129.63
2018-01-06T09:10:51.937Z,100135.78
2018-01-06T09:13:19.461Z,100133.66
2018-01-06T09:15:47.203Z,100140.77
2018-01-06T09:18:14.822Z,100150.64
2018-01-06T09:20:42.344Z,100153.24
2018-01-06T09:23:10.026Z,100152.48
2018-01-06T09:25:37.641Z,100152.17
2018-01-06T09:28:05.176Z,100156.69
2018-01-06T09:30:32.755Z,100152.78
2018-01-06T09:33:00.347Z,100157.65
2018-01-06T09:35:27.925Z,100163.45
2018-01-06T09:37:55.445Z,100161.75
2018-01-06T09:40:23.000Z,100173.56
2018-01-06T09:42:50.608Z,100175.16
2018-01-06T09:45:18.156Z,100180.16
2018-01-06T09:47:45.688Z,100179.13
2018-01-06T09:50:13.231Z,100180.95
2018-01-06T09:52:40.789Z,100193.19
2018-01-06T09:55:08.361Z,100188.31
2018-01-06T09:57:35.918Z,100193.59
2018-01-06T10:00:03.468Z,100195.70
2018-01-06T10:02:31.022Z,100205.31
2018-01-06T10:04:58.610Z,100200.70
2018-01-06T10:07:26.246Z,100209.79
2018-01-06T10:09:53.826Z,100206.76
2018-01-06T10:12:21.347Z,100205.58
2018-01-06T10:14:48.961Z,100209.11
2018-01-06T10:17:16.715Z,100216.34
2018-01-06T10:19:44.282Z,100207.40
2018-01-06T10:22:11.866Z,100220.53
2018-01-06T10:24:39.433Z,100219.23
2018-01-06T10:27:06.987Z,100216.08
2018-01-06T10:29:34.560Z,100223.72
2018-01-06T10:32:02.188Z,100229.88
2018-01-06T10:34:29.708Z,100227.89
2018-01-06T10:36:57.312Z,100236.44
2018-01-06T10:39:25.074Z,100234.88
2018-01-06T10:41:52.610Z,100234.35
2018-01-06T10:44:20.235Z,100243.69
2018-01-06T10:46:47.816Z,100241.17
2018-01-06T10:49:15.381Z,100244.59
2018-01-06T10:51:42.928Z,100238.69
2018-01-06T10:54:10.520Z,100242.25
2018-01-06T10:56:38.032Z,100241.72
2018-01-06T10:59:05.893Z,100247.48
2018-01-06T11:01:39.293Z,100248.69
2018-01-06T11:04:06.915Z,100250.13
2018-01-06T11:06:34.502Z,100253.28
2018-01-06T11:09:02.025Z,100258.55
2018-01-06T11:11:29.596Z,100261.42
2018-01-06T11:13:57.158Z,100265.23
2018-01-06T11:16:24.751Z,100261.25
2018-01-06T11:18:52.329Z,100267.47
2018-01-06T11:21:19.864Z,100271.70
2018-01-06T11:23:47.420Z,100269.69
2018-01-06T11:26:14.978Z,100277.79
2018-01-06T11:28:42.567Z,100277.98
2018-01-06T11:31:10.084Z,100283.89
2018-01-06T11:33:37.604Z,100285.88
2018-01-06T11:36:05.418Z,100284.02
2018-01-06T11:38:32.989Z,100285.10
2018-01-06T11:41:00.567Z,100296.66
2018-01-06T11:43:28.104Z,100306.01
2018-01-06T11:45:55.632Z,100308.13
2018-01-06T11:48:23.176Z,100304.84
2018-01-06T11:50:50.780Z,100308.01
2018-01-06T11:53:18.334Z,100314.95
2018-01-06T11:55:45.897Z,100316.06
2018-01-06T11:58:13.465Z,100324.80
2018-01-06T12:00:41.009Z,100328.31
2018-01-06T12:03:08.566Z,100322.92
2018-01-06T12:05:36.114Z,100320.97
2018-01-06T12:08:03.759Z,100329.42
2018-01-06T12:10:31.319Z,100322.89
2018-01-06T12:12:58.880Z,100320.73
2018-01-06T12:15:26.574Z,100318.53
2018-01-06T12:17:54.243Z,100315.69
2018-01-06T12:20:21.933Z,100319.50
2018-01-06T12:22:49.518Z,100326.91
2018-01-06T12:25:17.124Z,100326.45
2018-01-06T12:27:44.698Z,100323.95
2018-01-06T12:30:12.436Z,100335.02
2018-01-06T12:32:40.165Z,100334.81
2018-01-06T12:35:07.725Z,100325.19
2018-01-06T12:37:35.342Z,100336.55
2018-01-06T12:40:03.006Z,100332.97
2018-01-06T12:42:30.560Z,100329.69
2018-01-06T12:44:58.146Z,100333.78
2018-01-06T12:47:25.668Z,100329.66
2018-01-06T12:49:53.247Z,100345.94
2018-01-06T12:52:20.798Z,100349.92
2018-01-06T12:54:48.352Z,100352.22
2018-01-06T12:57:15.974Z,100354.85
2018-01-06T12:59:43.545Z,100364.78
2018-01-06T13:02:11.062Z,100367.00
2018-01-06T13:04:38.674Z,100369.71
2018-01-06T13:07:06.186Z,100373.02
2018-01-06T13:09:33.716Z,100378.86
2018-01-06T13:12:01.317Z,100394.41
2018-01-06T13:14:28.891Z,100390.00
2018-01-06T13:16:56.449Z,100398.75
2018-01-06T13:19:24.193Z,100406.64
2018-01-06T13:21:51.758Z,100407.66
2018-01-06T13:24:19.446Z,100415.82
2018-01-06T13:26:47.057Z,100409.36
2018-01-06T13:29:14.629Z,100404.73
2018-01-06T13:31:42.173Z,100405.80
2018-01-06T13:34:09.758Z,100413.67
2018-01-06T13:36:37.330Z,100425.28
2018-01-06T13:39:05.067Z,100430.70
2018-01-06T13:41:32.586Z,100439.66
2018-01-06T13:44:00.177Z,100450.69
2018-01-06T13:46:27.715Z,100457.04
2018-01-06T13:48:55.354Z,100461.02
2018-01-06T13:51:22.895Z,100459.34
2018-01-06T13:53:50.497Z,100462.59
2018-01-06T13:56:18.061Z,100467.41
2018-01-06T13:58:45.605Z,100467.42
2018-01-06T14:01:13.211Z,100471.77
2018-01-06T14:03:40.760Z,100469.66
2018-01-06T14:06:08.307Z,100465.17
2018-01-06T14:08:35.859Z,100461.69
2018-01-06T14:11:03.396Z,100466.22
2018-01-06T14:13:31.002Z,100459.47
2018-01-06T14:15:58.600Z,100471.72
2018-01-06T14:18:26.112Z,100472.51
2018-01-06T14:20:53.669Z,100481.23
2018-01-06T14:23:21.302Z,100478.33
2018-01-06T14:25:48.850Z,100479.52
2018-01-06T14:28:16.380Z,100479.77
2018-01-06T14:30:43.957Z,100492.14
2018-01-06T14:33:11.480Z,100497.69
2018-01-06T14:35:39.025Z,100507.03
2018-01-06T14:38:06.536Z,100510.98
2018-01-06T14:40:34.168Z,100511.77
2018-01-06T14:43:01.725Z,100520.48
2018-01-06T14:45:29.324Z,100525.88
2018-01-06T14:47:56.885Z,100535.22
2018-01-06T14:50:24.420Z,100532.20
2018-01-06T14:52:51.973Z,100521.78
2018-01-06T14:55:19.548Z,100522.45
2018-01-06T14:57:47.056Z,100533.51
2018-01-06T15:00:15.548Z,100542.84
2018-01-06T15:02:43.428Z,100544.83
2018-01-06T15:05:10.967Z,100550.88
2018-01-06T15:07:38.845Z,100549.55
2018-01-06T15:10:06.428Z,100558.62
2018-01-06T15:12:33.944Z,100557.84
2018-01-06T15:15:01.497Z,100553.88
2018-01-06T15:17:29.111Z,100546.08
2018-01-06T15:19:56.678Z,100554.37
2018-01-06T15:22:24.281Z,100565.58
2018-01-06T15:24:52.060Z,100570.54
2018-01-06T15:27:19.747Z,100568.96
2018-01-06T15:29:47.414Z,100570.02
2018-01-06T15:32:14.986Z,100574.34
2018-01-06T15:34:42.535Z,100580.65
2018-01-06T15:37:10.118Z,100585.27
2018-01-06T15:39:37.673Z,100586.31
2018-01-06T15:42:05.250Z,100594.73
2018-01-06T15:44:32.818Z,100604.67
2018-01-06T15:47:00.709Z,100615.66
2018-01-06T15:49:28.230Z,100622.23
2018-01-06T15:51:55.796Z,100625.93
2018-01-06T15:54:23.352Z,100628.47
2018-01-06T15:56:50.903Z,100637.30
2018-01-06T15:59:18.458Z,100645.08
2018-01-06T16:01:46.038Z,100645.43
2018-01-06T16:04:13.556Z,100655.31
2018-01-06T16:06:41.148Z,100652.27
2018-01-06T16:09:08.689Z,100653.55
2018-01-06T16:11:36.241Z,100656.02
2018-01-06T16:14:03.793Z,100661.14
2018-01-06T16:16:31.374Z,100669.12
2018-01-06T16:18:58.930Z,100670.21
2018-01-06T16:21:26.542Z,100669.78
2018-01-06T16:23:54.060Z,100677.97
2018-01-06T16:26:21.763Z,100680.63
2018-01-06T16:28:49.425Z,100684.41
2018-01-06T16:31:17.034Z,100685.32
2018-01-06T16:33:44.581Z,100690.98
2018-01-06T16:36:12.135Z,100705.92
2018-01-06T16:38:39.934Z,100704.69
2018-01-06T16:41:07.487Z,100713.28
2018-01-06T16:43:35.053Z,100716.44
2018-01-06T16:46:02.568Z,100720.90
2018-01-06T16:48:30.163Z,100732.13
2018-01-06T16:50:57.710Z,100737.11
2018-01-06T16:53:25.267Z,100728.05
2018-01-06T16:55:52.838Z,100736.55
2018-01-06T16:58:20.394Z,100743.55
2018-01-06T17:00:48.003Z,100750.91
2018-01-06T17:03:15.637Z,100750.38
2018-01-06T17:05:43.224Z,100752.22
2018-01-06T17:08:10.888Z,100758.58
2018-01-06T17:10:38.473Z,100763.83
2018-01-06T17:13:06.000Z,100773.20
2018-01-06T17:15:33.546Z,100784.54
2018-01-06T17:18:01.090Z,100788.96
2018-01-06T17:20:28.648Z,100782.56
2018-01-06T17:22:56.189Z,100794.08
2018-01-06T17:25:23.723Z,100798.88
2018-01-06T17:27:51.531Z,100800.21
2018-01-06T17:30:19.048Z,100805.20
2018-01-06T17:32:46.638Z,100810.50
2018-01-06T17:35:14.185Z,100814.70
2018-01-06T17:37:41.745Z,100821.40
2018-01-06T17:40:09.292Z,100812.64
2018-01-06T17:42:36.870Z,100812.56
2018-01-06T17:45:04.517Z,100820.05
2018-01-06T17:47:32.114Z,100826.64
2018-01-06T17:49:59.635Z,100842.12
2018-01-06T17:52:27.185Z,100838.13
2018-01-06T17:54:54.935Z,100852.18
2018-01-06T17:57:22.520Z,100855.58
2018-01-06T17:59:50.069Z,100849.38
2018-01-06T18:02:17.594Z,100857.70
2018-01-06T18:04:45.131Z,100856.59
2018-01-06T18:07:12.679Z,100859.55
2018-01-06T18:09:40.364Z,100871.61
2018-01-06T18:12:08.148Z,100880.61
2018-01-06T18:14:35.660Z,100890.07
2018-01-06T18:17:03.348Z,100901.09
2018-01-06T18:19:31.177Z,100913.36
2018-01-06T18:21:58.697Z,100918.44
2018-01-06T18:24:26.279Z,100917.30
2018-01-06T18:26:53.820Z,100924.53
2018-01-06T18:29:21.364Z,100934.16
2018-01-06T18:31:49.040Z,100938.02
2018-01-06T18:34:16.617Z,100948.86
2018-01-06T18:36:44.139Z,100951.19
2018-01-06T18:39:11.680Z,100951.28
2018-01-06T18:41:39.327Z,100957.14
2018-01-06T18:44:06.843Z,100951.83
2018-01-06T18:46:34.343Z,100956.77
2018-01-06T18:49:01.923Z,100972.23
2018-01-06T18:51:29.445Z,100974.70
2018-01-06T18:53:56.946Z,100980.69
2018-01-06T18:56:24.518Z,100987.85
2018-01-06T18:58:52.057Z,100987.83
2018-01-06T19:01:19.621Z,100996.18
2018-01-06T19:03:47.250Z,101001.92
2018-01-06T19:06:14.968Z,100999.17
2018-01-06T19:08:42.514Z,100996.61
2018-01-06T19:11:10.099Z,101004.97
2018-01-06T19:13:38.652Z,101012.77
2018-01-06T19:16:06.245Z,101016.20
2018-01-06T19:18:33.775Z,101020.77
2018-01-06T19:21:01.350Z,101026.29
2018-01-06T19:23:28.905Z,101018.28
2018-01-06T19:25:56.528Z,101020.78
2018-01-06T19:28:24.245Z,101022.67
2018-01-06T19:30:51.820Z,101028.14
2018-01-06T19:33:19.363Z,101027.48
2018-01-06T19:35:46.964Z,101030.42
2018-01-06T19:38:14.518Z,101039.34
2018-01-06T19:40:42.033Z,101046.58
2018-01-06T19:43:09.790Z,101057.23
2018-01-06T19:45:37.455Z,101065.30
2018-01-06T19:48:05.000Z,101057.47
2018-01-06T19:50:32.552Z,101063.95
2018-01-06T19:53:00.150Z,101073.58
2018-01-06T19:55:27.663Z,101080.70
2018-01-06T19:57:55.176Z,101081.77
2018-01-06T20:00:22.898Z,101083.44
2018-01-06T20:02:50.500Z,101090.19
2018-01-06T20:05:18.011Z,101094.55
2018-01-06T20:07:45.616Z,101102.13
2018-01-06T20:10:13.163Z,101106.02
2018-01-06T20:12:40.719Z,101109.39
2018-01-06T20:15:08.323Z,101118.56
2018-01-06T20:17:35.920Z,101122.72
2018-01-06T20:20:03.554Z,101125.45
2018-01-06T20:22:31.087Z,101136.52
2018-01-06T20:24:58.628Z,101136.87
2018-01-06T20:27:26.408Z,101143.93
2018-01-06T20:29:54.064Z,101149.92
2018-01-06T20:32:21.824Z,101149.52
2018-01-06T20:34:49.638Z,101155.91
2018-01-06T20:37:17.165Z,101164.11
2018-01-06T20:39:44.879Z,101167.81
2018-01-06T20:42:12.392Z,101174.48
2018-01-06T20:44:40.060Z,101181.75
2018-01-06T20:47:07.653Z,101187.39
2018-01-06T20:49:35.189Z,101190.84
2018-01-06T20:52:02.771Z,101197.22
2018-01-06T20:54:30.337Z,101198.70
2018-01-06T20:56:57.954Z,101197.78
2018-01-06T20:59:25.544Z,101210.17
2018-01-06T21:01:53.058Z,101211.08
2018-01-06T21:04:20.717Z,101209.38
2018-01-06T21:06:48.278Z,101212.45
2018-01-06T21:09:15.858Z,101216.18
2018-01-06T21:11:43.541Z,101216.61
2018-01-06T21:14:11.093Z,101218.28
2018-01-06T21:16:38.670Z,101221.81
2018-01-06T21:19:06.180Z,101221.10
2018-01-06T21:21:33.722Z,101224.31
2018-01-06T21:24:01.260Z,101232.54
2018-01-06T21:26:28.960Z,101244.31
2018-01-06T21:28:56.552Z,101246.48
2018-01-06T21:31:24.201Z,101255.50
2018-01-06T21:33:52.771Z,101268.94
2018-01-06T21:36:20.501Z,101265.91
2018-01-06T21:38:48.172Z,101272.36
2018-01-06T21:41:15.831Z,101273.16
2018-01-06T21:43:43.382Z,101276.18
2018-01-06T21:46:10.906Z,101283.59
2018-01-06T21:48:38.494Z,101284.52
2018-01-06T21:51:06.007Z,101285.68
2018-01-06T21:53:33.545Z,101294.88
2018-01-06T21:56:01.157Z,101298.16
2018-01-06T21:58:28.716Z,101301.05
2018-01-06T22:00:56.293Z,101309.52
2018-01-06T22:03:23.855Z,101314.28
2018-01-06T22:05:51.470Z,101311.43
2018-01-06T22:08:18.996Z,101315.64
2018-01-06T22:10:46.569Z,101317.97
2018-01-06T22:13:14.080Z,101324.47
2018-01-06T22:15:41.644Z,101334.86
2018-01-06T22:18:09.447Z,101338.23
2018-01-06T22:20:37.169Z,101341.76
2018-01-06T22:23:04.757Z,101345.37
2018-01-06T22:25:32.338Z,101342.87
2018-01-06T22:28:00.145Z,101352.30
2018-01-06T22:30:27.817Z,101354.23
2018-01-06T22:32:55.345Z,101358.93
2018-01-06T22:35:22.931Z,101360.16
2018-01-06T22:37:50.480Z,101360.95
2018-01-06T22:40:18.019Z,101365.48
2018-01-06T22:42:45.527Z,101374.05
2018-01-06T22:45:13.121Z,101367.02
2018-01-06T22:47:40.640Z,101370.12
2018-01-06T22:50:08.369Z,101367.58
2018-01-06T22:52:35.925Z,101371.39
2018-01-06T22:55:03.464Z,101377.23
2018-01-06T22:57:31.000Z,101378.05
2018-01-06T22:59:58.547Z,101387.96
2018-01-06T23:02:26.164Z,101386.71
2018-01-06T23:04:53.738Z,101399.01
2018-01-06T23:07:21.291Z,101390.48
2018-01-06T23:09:48.845Z,101391.89
2018-01-06T23:12:16.428Z,101405.31
2018-01-06T23:14:44.139Z,101404.83
2018-01-06T23:17:11.875Z,101411.84
2018-01-06T23:19:39.691Z,101414.97
2018-01-06T23:22:07.477Z,101416.92
2018-01-06T23:24:35.038Z,101419.73
2018-01-06T23:27:02.579Z,101425.31
2018-01-06T23:29:30.092Z,101423.00
2018-01-06T23:31:57.862Z,101422.52
2018-01-06T23:34:25.440Z,101429.75
2018-01-06T23:36:52.976Z,101429.39
2018-01-06T23:39:20.528Z,101436.66
2018-01-06T23:41:48.125Z,101441.38
2018-01-06T23:44:15.701Z,101433.84
2018-01-06T23:46:43.322Z,101445.16
2018-01-06T23:49:10.934Z,101448.73
2018-01-06T23:51:38.494Z,101451.57
2018-01-06T23:54:06.017Z,101444.93
2018-01-06T23:56:33.670Z,101462.92
2018-01-06T23:59:01.227Z,101461.20
